Time;durP1;ratioP1;P1;durP2;ratioP2;P2;SDS_P1;SDS_P2;PMS_P1;PMS_P2;Temp;Humidity;BMP_temperature;BMP_pressure;BME280_temperature;BME280_humidity;BME280_pressure;Samples;Min_cycle;Max_cycle;Signal;HPM_P1;HPM_P2
2022/02/16 00:01:47;;;;;;;7.63;6.83;;;6.20;99.90;;;;;;5062235;28;20199;-42
2022/02/16 00:04:14;;;;;;;8.17;7.37;;;6.20;99.90;;;;;;5041738;28;20218;-41
2022/02/16 00:06:40;;;;;;;7.43;6.63;;;6.20;99.90;;;;;;5061967;28;20207;-40
2022/02/16 00:09:08;;;;;;;7.37;6.67;;;6.20;99.90;;;;;;5062965;28;20276;-40
2022/02/16 00:11:35;;;;;;;7.93;6.83;;;6.20;99.90;;;;;;5055413;28;20198;-43
2022/02/16 00:14:02;;;;;;;7.10;6.00;;;6.20;99.90;;;;;;5063250;28;20201;-42
2022/02/16 00:16:30;;;;;;;8.93;7.47;;;6.20;99.90;;;;;;5054038;28;20195;-42
2022/02/16 00:18:58;;;;;;;8.10;6.83;;;6.20;99.90;;;;;;5063389;28;20215;-42
2022/02/16 00:21:24;;;;;;;6.73;6.03;;;6.20;99.90;;;;;;5040819;28;20276;-46
2022/02/16 00:23:51;;;;;;;8.63;7.30;;;6.20;99.90;;;;;;5063336;28;20229;-41
2022/02/16 00:26:18;;;;;;;8.20;6.83;;;6.30;99.90;;;;;;5055626;28;20207;-44
2022/02/16 00:28:44;;;;;;;8.07;6.37;;;6.30;99.90;;;;;;5061599;28;20605;-41
2022/02/16 00:31:11;;;;;;;7.90;6.60;;;6.30;99.90;;;;;;5056876;28;20215;-40
2022/02/16 00:33:40;;;;;;;7.80;6.77;;;6.30;99.90;;;;;;5058454;28;20364;-39
2022/02/16 00:36:07;;;;;;;8.93;6.27;;;6.30;99.90;;;;;;5045878;28;20309;-39
2022/02/16 00:38:34;;;;;;;5.87;5.37;;;6.30;99.90;;;;;;5060623;28;20296;-43
2022/02/16 00:41:01;;;;;;;6.80;4.67;;;6.30;99.90;;;;;;5063684;28;20203;-41
2022/02/16 00:43:28;;;;;;;5.80;5.30;;;6.20;99.90;;;;;;5052924;28;20320;-41
2022/02/16 00:45:55;;;;;;;6.37;5.00;;;6.20;99.90;;;;;;5062958;28;20225;-41
2022/02/16 00:48:22;;;;;;;6.23;5.17;;;6.20;99.90;;;;;;5052514;28;20524;-40
2022/02/16 00:50:50;;;;;;;5.23;4.73;;;6.20;99.90;;;;;;5041027;28;20211;-42
2022/02/16 00:53:17;;;;;;;4.70;4.30;;;6.20;99.90;;;;;;5057262;28;20202;-42
2022/02/16 00:55:44;;;;;;;4.50;4.03;;;6.20;99.90;;;;;;5063231;28;20211;-42
2022/02/16 00:58:12;;;;;;;4.57;4.17;;;6.20;99.90;;;;;;5054379;28;20214;-43
2022/02/16 01:00:39;;;;;;;5.03;3.67;;;6.30;99.90;;;;;;5061401;28;20324;-41
2022/02/16 01:03:08;;;;;;;5.23;3.37;;;6.30;99.90;;;;;;5059693;28;20213;-42
2022/02/16 01:05:35;;;;;;;5.33;3.77;;;6.30;99.90;;;;;;5044777;28;20222;-41
2022/02/16 01:08:08;;;;;;;3.60;3.30;;;6.30;99.90;;;;;;5060712;28;20203;-41
2022/02/16 01:10:35;;;;;;;3.43;3.20;;;6.30;99.90;;;;;;5053901;28;20195;-40
2022/02/16 01:13:02;;;;;;;3.73;3.20;;;6.20;99.90;;;;;;5055239;28;20218;-41
2022/02/16 01:15:29;;;;;;;4.47;3.30;;;6.20;99.90;;;;;;5052665;28;20190;-43
2022/02/16 01:17:59;;;;;;;2.97;2.77;;;6.20;99.90;;;;;;5062806;28;20190;-40
2022/02/16 01:20:34;;;;;;;3.17;2.87;;;6.20;99.90;;;;;;5044078;28;20259;-41
2022/02/16 01:23:13;;;;;;;3.03;2.57;;;6.20;99.90;;;;;;5059329;28;20217;-41
2022/02/16 01:25:42;;;;;;;3.33;3.00;;;6.20;99.90;;;;;;5062243;28;20265;-41
2022/02/16 01:28:19;;;;;;;3.43;3.13;;;6.20;99.90;;;;;;5060449;28;20218;-40
2022/02/16 01:30:46;;;;;;;4.00;3.60;;;6.20;99.90;;;;;;5060181;28;20219;-40
2022/02/16 01:33:23;;;;;;;5.13;3.77;;;6.20;99.90;;;;;;5062022;28;20202;-41
2022/02/16 01:35:51;;;;;;;7.53;3.80;;;6.20;99.90;;;;;;5066891;28;20214;-46
2022/02/16 01:38:20;;;;;;;4.57;3.83;;;6.20;99.90;;;;;;5049286;28;20222;-40
2022/02/16 01:40:57;;;;;;;4.77;4.17;;;6.20;99.90;;;;;;5065526;28;20690;-46
2022/02/16 01:43:25;;;;;;;4.80;4.17;;;6.30;99.90;;;;;;5054917;28;20209;-42
2022/02/16 01:45:53;;;;;;;4.93;4.27;;;6.30;99.90;;;;;;5065127;28;20203;-43
2022/02/16 01:48:23;;;;;;;4.87;4.13;;;6.30;99.90;;;;;;5055535;28;20803;-42
2022/02/16 01:50:50;;;;;;;5.73;4.40;;;6.30;99.90;;;;;;5064578;28;20198;-41
2022/02/16 01:53:29;;;;;;;5.10;4.60;;;6.40;99.90;;;;;;5046872;28;20198;-43
2022/02/16 01:55:57;;;;;;;6.93;5.13;;;6.40;99.90;;;;;;5064849;28;20199;-44
2022/02/16 01:58:25;;;;;;;5.57;5.07;;;6.40;99.90;;;;;;5055077;28;20902;-43
2022/02/16 02:01:24;;;;;;;6.03;4.90;;;6.40;99.90;;;;;;5059362;28;20768;-42
2022/02/16 02:03:58;;;;;;;6.20;5.60;;;6.40;99.90;;;;;;5066226;28;20293;-43
2022/02/16 02:06:26;;;;;;;5.03;4.60;;;6.40;99.90;;;;;;5060797;28;20256;-42
2022/02/16 02:08:55;;;;;;;5.77;5.17;;;6.40;99.90;;;;;;5050776;28;20214;-43
2022/02/16 02:11:22;;;;;;;5.97;5.27;;;6.40;99.90;;;;;;5062079;28;20234;-42
2022/02/16 02:13:59;;;;;;;8.03;5.27;;;6.50;99.90;;;;;;5064856;28;20636;-41
2022/02/16 02:16:47;;;;;;;6.50;5.37;;;6.50;99.90;;;;;;5064707;28;20207;-40
2022/02/16 02:19:15;;;;;;;6.43;5.60;;;6.50;99.90;;;;;;5062188;28;20227;-40
2022/02/16 02:21:47;;;;;;;8.10;5.03;;;6.50;99.90;;;;;;5061659;28;20591;-40
2022/02/16 02:24:14;;;;;;;7.40;6.10;;;6.50;99.90;;;;;;5048015;28;20706;-40
2022/02/16 02:26:40;;;;;;;7.23;5.03;;;6.50;99.90;;;;;;5064138;28;21188;-41
2022/02/16 02:29:08;;;;;;;7.57;5.40;;;6.50;99.90;;;;;;5063522;28;20947;-40
2022/02/16 02:31:43;;;;;;;6.07;4.93;;;6.50;99.90;;;;;;5058378;28;20206;-44
2022/02/16 02:34:10;;;;;;;7.83;5.77;;;6.50;99.90;;;;;;5063855;28;20211;-38
2022/02/16 02:36:37;;;;;;;8.13;5.27;;;6.60;99.90;;;;;;5061570;28;20284;-39
2022/02/16 02:39:06;;;;;;;6.87;5.03;;;6.60;99.90;;;;;;5063509;28;20222;-45
2022/02/16 02:41:32;;;;;;;6.30;5.17;;;6.60;99.90;;;;;;5051683;28;20234;-41
2022/02/16 02:43:59;;;;;;;6.20;4.90;;;6.60;99.90;;;;;;5064179;28;20217;-42
2022/02/16 02:46:27;;;;;;;7.13;5.33;;;6.60;99.90;;;;;;5057523;28;20309;-40
2022/02/16 02:48:59;;;;;;;9.70;5.40;;;6.60;99.90;;;;;;5083307;28;20287;-42
2022/02/16 02:51:27;;;;;;;6.50;5.83;;;6.60;99.90;;;;;;5069683;28;20225;-42
2022/02/16 02:53:56;;;;;;;9.27;7.33;;;6.60;99.90;;;;;;5063694;28;20248;-39
2022/02/16 02:56:27;;;;;;;7.30;6.53;;;6.60;99.90;;;;;;5044586;28;20198;-40
2022/02/16 02:58:54;;;;;;;11.73;7.73;;;6.60;99.90;;;;;;5068188;28;20217;-45
2022/02/16 03:01:21;;;;;;;13.13;8.00;;;6.60;99.90;;;;;;5072012;28;20204;-42
2022/02/16 03:03:51;;;;;;;12.47;7.93;;;6.60;99.90;;;;;;5060346;28;20230;-40
2022/02/16 03:06:19;;;;;;;10.33;8.43;;;6.60;99.90;;;;;;5054987;28;20215;-40
2022/02/16 03:08:46;;;;;;;13.50;9.00;;;6.60;99.90;;;;;;5059515;28;20915;-42
2022/02/16 03:11:19;;;;;;;10.33;8.13;;;6.60;99.90;;;;;;5049041;28;20212;-43
2022/02/16 03:13:47;;;;;;;12.63;9.60;;;6.70;99.90;;;;;;5058723;28;20302;-42
2022/02/16 03:16:22;;;;;;;13.93;10.13;;;6.70;99.90;;;;;;5057054;28;20284;-45
2022/02/16 03:18:49;;;;;;;12.27;8.77;;;6.70;99.90;;;;;;5053701;28;20226;-43
2022/02/16 03:21:16;;;;;;;13.93;9.37;;;6.70;99.90;;;;;;5058302;28;20746;-44
2022/02/16 03:23:44;;;;;;;13.20;9.30;;;6.70;99.90;;;;;;5058487;28;20288;-42
2022/02/16 03:26:10;;;;;;;13.03;9.23;;;6.70;99.90;;;;;;5063122;28;20744;-44
2022/02/16 03:28:38;;;;;;;15.17;10.80;;;6.70;99.90;;;;;;5047305;28;20293;-42
2022/02/16 03:31:36;;;;;;;14.90;10.67;;;6.70;99.90;;;;;;5045934;28;20313;-41
2022/02/16 03:34:05;;;;;;;18.17;12.00;;;6.70;99.90;;;;;;5094598;27;20222;-41
2022/02/16 03:36:38;;;;;;;17.77;11.93;;;6.70;99.90;;;;;;5060236;28;20212;-41
2022/02/16 03:39:05;;;;;;;13.47;11.57;;;6.80;99.90;;;;;;5063698;28;20309;-40
2022/02/16 03:41:32;;;;;;;16.03;11.40;;;6.80;99.90;;;;;;5061927;28;20210;-42
2022/02/16 03:43:59;;;;;;;16.17;11.87;;;6.80;99.90;;;;;;5046164;28;20278;-43
2022/02/16 03:46:31;;;;;;;15.33;11.33;;;6.80;99.90;;;;;;5060228;28;20206;-41
2022/02/16 03:49:00;;;;;;;15.93;11.90;;;6.80;99.90;;;;;;5056081;28;20969;-42
2022/02/16 03:51:28;;;;;;;15.17;12.27;;;6.80;99.90;;;;;;5061893;28;20576;-42
2022/02/16 03:53:55;;;;;;;16.40;13.00;;;6.90;99.90;;;;;;5059356;28;20548;-41
2022/02/16 03:56:22;;;;;;;16.10;12.20;;;6.90;99.90;;;;;;5062699;28;20202;-43
2022/02/16 03:58:49;;;;;;;16.73;11.73;;;6.90;99.90;;;;;;5044499;28;20218;-40
2022/02/16 04:01:16;;;;;;;15.17;12.23;;;6.90;99.90;;;;;;5061812;28;20205;-41
2022/02/16 04:03:43;;;;;;;14.33;11.07;;;6.90;99.90;;;;;;5053052;28;20592;-41
2022/02/16 04:06:11;;;;;;;16.50;11.97;;;6.90;99.90;;;;;;5063437;28;20202;-43
2022/02/16 04:08:38;;;;;;;13.13;10.33;;;6.90;99.90;;;;;;5059553;28;20322;-40
2022/02/16 04:11:06;;;;;;;12.47;10.77;;;6.90;99.90;;;;;;5062108;28;20202;-41
2022/02/16 04:13:33;;;;;;;12.90;10.20;;;6.90;99.90;;;;;;5053753;28;20206;-40
2022/02/16 04:16:01;;;;;;;15.53;12.30;;;6.90;99.90;;;;;;5054243;28;20307;-41
2022/02/16 04:18:27;;;;;;;13.50;11.77;;;7.00;99.90;;;;;;5061549;28;20244;-40
2022/02/16 04:20:55;;;;;;;14.47;11.90;;;7.00;99.90;;;;;;5075588;28;20256;-41
2022/02/16 04:23:31;;;;;;;14.50;11.13;;;7.00;99.90;;;;;;5061150;28;20206;-41
2022/02/16 04:25:59;;;;;;;14.53;11.23;;;7.00;99.90;;;;;;5079357;28;20255;-43
2022/02/16 04:28:26;;;;;;;13.50;10.93;;;7.00;99.90;;;;;;5079490;28;20222;-40
2022/02/16 04:30:53;;;;;;;18.33;11.43;;;7.00;99.90;;;;;;5043174;28;20241;-42
2022/02/16 04:33:20;;;;;;;16.90;12.63;;;7.00;99.90;;;;;;5062554;28;20240;-40
2022/02/16 04:35:47;;;;;;;19.67;13.17;;;7.00;99.90;;;;;;5065172;28;20293;-42
2022/02/16 04:38:16;;;;;;;20.37;14.50;;;7.00;99.90;;;;;;5081778;28;20205;-42
2022/02/16 04:40:44;;;;;;;21.07;15.67;;;7.00;99.90;;;;;;5079749;28;20223;-41
2022/02/16 04:43:11;;;;;;;26.40;18.27;;;7.00;99.90;;;;;;5083285;28;20562;-40
2022/02/16 04:45:38;;;;;;;29.43;21.20;;;7.00;99.90;;;;;;5054721;28;20282;-41
2022/02/16 04:48:08;;;;;;;36.57;26.00;;;7.00;99.90;;;;;;5061832;28;20245;-41
2022/02/16 04:50:35;;;;;;;33.90;24.27;;;7.00;99.90;;;;;;5054511;28;20283;-43
2022/02/16 04:53:02;;;;;;;41.67;25.77;;;7.10;99.90;;;;;;5060811;28;20248;-40
2022/02/16 04:55:34;;;;;;;40.53;26.47;;;7.00;99.90;;;;;;5060407;28;20297;-41
2022/02/16 04:58:08;;;;;;;42.63;26.37;;;7.00;99.90;;;;;;5061551;28;20256;-41
2022/02/16 05:00:36;;;;;;;40.20;26.80;;;7.10;99.90;;;;;;5045125;28;20239;-41
2022/02/16 05:03:10;;;;;;;38.90;26.20;;;7.10;99.90;;;;;;5062187;28;20209;-44
2022/02/16 05:05:38;;;;;;;30.67;22.47;;;7.10;99.90;;;;;;5059506;28;20568;-40
2022/02/16 05:08:05;;;;;;;31.83;21.70;;;7.10;99.90;;;;;;5060619;28;20726;-41
2022/02/16 05:10:33;;;;;;;26.07;16.97;;;7.10;99.90;;;;;;5060697;28;20675;-41
2022/02/16 05:13:03;;;;;;;23.83;15.60;;;7.10;99.90;;;;;;5060968;28;20225;-42
2022/02/16 05:15:31;;;;;;;22.57;14.00;;;7.10;99.90;;;;;;5057204;28;20194;-40
2022/02/16 05:17:59;;;;;;;22.20;13.13;;;7.10;99.90;;;;;;5052061;28;20202;-41
2022/02/16 05:20:46;;;;;;;12.73;9.10;;;7.10;99.90;;;;;;5057577;28;20195;-43
2022/02/16 05:23:13;;;;;;;11.10;8.47;;;7.10;99.90;;;;;;5062239;28;20202;-42
2022/02/16 05:25:40;;;;;;;10.70;8.67;;;7.10;99.90;;;;;;5065616;28;20298;-40
2022/02/16 05:28:09;;;;;;;10.60;8.87;;;7.10;99.90;;;;;;5056448;28;20226;-42
2022/02/16 05:30:38;;;;;;;13.50;8.43;;;7.10;99.90;;;;;;5065869;28;20211;-40
2022/02/16 05:33:06;;;;;;;12.50;8.83;;;7.10;99.90;;;;;;5044894;28;20207;-45
2022/02/16 05:35:33;;;;;;;12.60;9.73;;;7.10;99.90;;;;;;5059484;28;20668;-40
2022/02/16 05:38:01;;;;;;;16.27;10.10;;;7.10;99.90;;;;;;5056808;28;20207;-42
2022/02/16 05:40:29;;;;;;;11.57;8.80;;;7.10;99.90;;;;;;5060468;28;20208;-40
2022/02/16 05:42:57;;;;;;;13.80;9.57;;;7.10;99.90;;;;;;5092840;28;20199;-41
2022/02/16 05:45:25;;;;;;;12.47;9.30;;;7.10;99.90;;;;;;5061562;28;20248;-41
2022/02/16 05:47:54;;;;;;;19.97;10.40;;;7.10;99.90;;;;;;5042379;28;20241;-40
2022/02/16 05:50:20;;;;;;;11.87;8.87;;;7.10;99.90;;;;;;5054184;28;20301;-41
2022/02/16 05:52:48;;;;;;;13.03;9.37;;;7.10;99.90;;;;;;5056114;28;20321;-44
2022/02/16 05:55:15;;;;;;;12.30;8.57;;;7.10;99.90;;;;;;5060476;28;20290;-41
2022/02/16 05:57:42;;;;;;;13.17;9.03;;;7.10;99.90;;;;;;5058148;28;20278;-44
2022/02/16 06:00:11;;;;;;;12.30;9.47;;;7.10;99.90;;;;;;5052292;28;20215;-42
2022/02/16 06:02:44;;;;;;;12.90;9.43;;;7.10;99.90;;;;;;5044034;28;20217;-42
2022/02/16 06:05:16;;;;;;;11.20;9.00;;;7.10;99.90;;;;;;5052846;28;20937;-39
2022/02/16 06:07:43;;;;;;;10.50;8.80;;;7.10;99.90;;;;;;5056188;28;20272;-40
2022/02/16 06:10:11;;;;;;;11.27;8.73;;;7.10;99.90;;;;;;5055061;28;20213;-41
2022/02/16 06:12:40;;;;;;;10.17;8.33;;;7.10;99.90;;;;;;5075500;28;20191;-41
2022/02/16 06:15:07;;;;;;;11.07;7.87;;;7.10;99.90;;;;;;5071094;28;20225;-40
2022/02/16 06:17:37;;;;;;;11.10;8.00;;;7.10;99.90;;;;;;5064059;28;20198;-40
2022/02/16 06:20:09;;;;;;;10.93;7.33;;;7.10;99.90;;;;;;5063718;28;20313;-41
2022/02/16 06:22:38;;;;;;;18.97;10.07;;;7.10;99.90;;;;;;5054802;28;20237;-40
2022/02/16 06:25:07;;;;;;;8.63;7.00;;;7.10;99.90;;;;;;5057253;28;20233;-41
2022/02/16 06:27:36;;;;;;;7.40;6.30;;;7.20;99.90;;;;;;5063093;28;20217;-41
2022/02/16 06:30:04;;;;;;;8.33;7.13;;;7.10;99.90;;;;;;5060149;28;20241;-45
2022/02/16 06:32:44;;;;;;;8.70;6.23;;;7.10;99.90;;;;;;5066772;28;20573;-41
2022/02/16 06:35:13;;;;;;;10.60;6.20;;;7.10;99.90;;;;;;5046917;28;20264;-41
2022/02/16 06:37:42;;;;;;;12.27;6.03;;;7.10;99.90;;;;;;5058688;28;20309;-41
2022/02/16 06:40:10;;;;;;;5.50;4.70;;;7.10;99.90;;;;;;5053880;28;20225;-40
2022/02/16 06:42:41;;;;;;;5.77;5.20;;;7.10;99.90;;;;;;5063763;28;20294;-40
2022/02/16 06:45:11;;;;;;;6.10;5.50;;;7.10;99.90;;;;;;5060360;28;20190;-40
2022/02/16 06:47:48;;;;;;;6.43;5.43;;;7.10;99.90;;;;;;5063155;28;20206;-42
2022/02/16 06:50:15;;;;;;;6.27;5.20;;;7.10;99.90;;;;;;5046681;28;20284;-39
2022/02/16 06:52:50;;;;;;;6.07;5.47;;;7.10;99.90;;;;;;5057885;28;20298;-43
2022/02/16 06:55:17;;;;;;;5.53;5.00;;;7.10;99.90;;;;;;5050706;28;21777;-40
2022/02/16 06:57:48;;;;;;;6.17;5.57;;;7.20;99.90;;;;;;5075296;28;20200;-40
2022/02/16 07:00:16;;;;;;;5.63;5.10;;;7.20;99.90;;;;;;5059205;28;20587;-42
2022/02/16 07:02:44;;;;;;;5.23;4.73;;;7.10;99.90;;;;;;5048791;28;20683;-41
2022/02/16 07:05:12;;;;;;;7.00;5.37;;;7.10;99.90;;;;;;5056608;28;20268;-40
2022/02/16 07:07:39;;;;;;;5.73;4.40;;;7.20;99.90;;;;;;5041846;28;20213;-40
2022/02/16 07:10:09;;;;;;;5.40;4.90;;;7.20;99.90;;;;;;5058686;28;20229;-42
2022/02/16 07:12:37;;;;;;;5.77;5.27;;;7.10;99.90;;;;;;5052835;28;20275;-40
2022/02/16 07:15:11;;;;;;;6.23;5.00;;;7.20;99.90;;;;;;5055760;28;21409;-40
2022/02/16 07:17:40;;;;;;;6.43;5.13;;;7.20;99.90;;;;;;5047824;28;20202;-41
2022/02/16 07:20:09;;;;;;;5.53;5.03;;;7.20;99.90;;;;;;5063082;28;20284;-41
2022/02/16 07:22:40;;;;;;;6.43;5.67;;;7.20;99.90;;;;;;5041715;28;20218;-40
2022/02/16 07:25:09;;;;;;;6.20;5.23;;;7.20;99.90;;;;;;5050731;28;20198;-40
2022/02/16 07:27:36;;;;;;;6.67;5.30;;;7.20;99.90;;;;;;5054255;28;20950;-40
2022/02/16 07:30:07;;;;;;;6.43;5.50;;;7.20;99.90;;;;;;5068779;28;20325;-41
2022/02/16 07:32:38;;;;;;;5.63;5.10;;;7.20;99.90;;;;;;5052925;28;20900;-40
2022/02/16 07:35:06;;;;;;;5.73;5.03;;;7.20;99.90;;;;;;5061626;28;20635;-41
2022/02/16 07:37:33;;;;;;;5.43;4.93;;;7.20;99.90;;;;;;5036958;28;20222;-40
2022/02/16 07:40:00;;;;;;;6.10;5.47;;;7.20;99.90;;;;;;5057636;28;20620;-41
2022/02/16 07:42:29;;;;;;;6.13;5.53;;;7.20;99.90;;;;;;5052741;28;20566;-40
2022/02/16 07:45:15;;;;;;;10.53;5.30;;;7.20;99.90;;;;;;5059994;28;20203;-41
2022/02/16 07:47:43;;;;;;;5.40;4.90;;;7.20;99.90;;;;;;5056370;28;20232;-40
2022/02/16 07:50:10;;;;;;;5.40;4.87;;;7.20;99.90;;;;;;5062876;28;20416;-42
2022/02/16 07:52:58;;;;;;;8.10;5.47;;;7.20;99.90;;;;;;5056885;28;20214;-41
2022/02/16 07:55:29;;;;;;;5.47;4.93;;;7.30;99.90;;;;;;5057205;28;20186;-40
2022/02/16 07:58:01;;;;;;;7.13;4.93;;;7.30;99.90;;;;;;5061977;28;20198;-41
2022/02/16 08:00:28;;;;;;;7.00;5.00;;;7.30;99.90;;;;;;5057717;28;20206;-42
2022/02/16 08:03:08;;;;;;;6.73;4.47;;;7.30;99.90;;;;;;5088728;28;20214;-42
2022/02/16 08:05:36;;;;;;;4.73;4.33;;;7.40;99.90;;;;;;5060263;28;20201;-45
2022/02/16 08:08:04;;;;;;;6.27;4.87;;;7.40;99.90;;;;;;5052996;28;20314;-41
2022/02/16 08:10:32;;;;;;;7.87;5.47;;;7.40;99.90;;;;;;5061990;28;20193;-44
2022/02/16 08:13:00;;;;;;;4.57;4.17;;;7.50;99.90;;;;;;5081749;28;20187;-42
2022/02/16 08:15:39;;;;;;;4.70;4.30;;;7.50;99.90;;;;;;5060393;28;20198;-40
2022/02/16 08:18:06;;;;;;;5.90;5.30;;;7.50;99.90;;;;;;5064022;28;20198;-41
2022/02/16 08:20:33;;;;;;;5.27;4.77;;;7.60;99.90;;;;;;5052400;28;20201;-42
2022/02/16 08:23:11;;;;;;;4.57;4.17;;;7.60;99.90;;;;;;5045413;28;20214;-39
2022/02/16 08:25:38;;;;;;;5.43;4.93;;;7.70;99.90;;;;;;5048720;28;20211;-43
2022/02/16 08:28:14;;;;;;;6.03;5.00;;;7.70;99.90;;;;;;5059236;28;20231;-45
2022/02/16 08:30:41;;;;;;;5.67;4.83;;;7.70;99.90;;;;;;5050790;28;20456;-44
2022/02/16 08:33:13;;;;;;;5.83;4.70;;;7.80;99.90;;;;;;5061639;28;20294;-41
2022/02/16 08:35:57;;;;;;;6.97;4.80;;;7.80;99.90;;;;;;5092281;27;20336;-42
2022/02/16 08:38:24;;;;;;;4.73;4.33;;;7.80;99.90;;;;;;5049314;28;20211;-43
2022/02/16 08:40:51;;;;;;;4.77;4.37;;;7.80;99.90;;;;;;5054795;28;20861;-44
2022/02/16 08:43:18;;;;;;;4.90;4.20;;;7.80;99.90;;;;;;5063751;28;20651;-42
2022/02/16 08:45:45;;;;;;;5.23;4.73;;;7.80;99.90;;;;;;5052772;28;20199;-41
2022/02/16 08:48:12;;;;;;;5.20;4.70;;;7.80;99.90;;;;;;5063645;28;20202;-42
2022/02/16 08:50:39;;;;;;;5.17;4.47;;;7.80;99.90;;;;;;5061128;28;20262;-44
2022/02/16 08:53:07;;;;;;;4.80;4.40;;;7.90;99.90;;;;;;5052806;28;20317;-44
2022/02/16 08:55:33;;;;;;;5.57;3.90;;;7.90;99.90;;;;;;5062656;28;20201;-45
2022/02/16 08:58:00;;;;;;;3.97;3.67;;;7.90;99.90;;;;;;5054400;28;20210;-42
2022/02/16 09:00:28;;;;;;;3.90;3.60;;;7.90;99.90;;;;;;5055772;28;20197;-41
2022/02/16 09:02:55;;;;;;;4.00;3.70;;;7.90;99.90;;;;;;5055608;28;20193;-42
2022/02/16 09:05:22;;;;;;;2.43;2.23;;;7.90;99.90;;;;;;5062819;28;20251;-40
2022/02/16 09:07:49;;;;;;;3.93;3.33;;;7.90;99.90;;;;;;5060277;28;20213;-40
2022/02/16 09:10:16;;;;;;;3.10;2.77;;;7.90;99.90;;;;;;5048024;28;20337;-40
2022/02/16 09:12:43;;;;;;;3.13;2.93;;;7.90;99.90;;;;;;5060404;28;20194;-40
2022/02/16 09:15:09;;;;;;;3.00;2.80;;;8.00;99.90;;;;;;5058645;28;20289;-40
2022/02/16 09:17:38;;;;;;;2.67;2.47;;;8.00;99.90;;;;;;5062073;28;20223;-45
2022/02/16 09:20:06;;;;;;;2.70;2.50;;;8.00;99.90;;;;;;5062386;28;20333;-44
2022/02/16 09:22:34;;;;;;;3.03;2.73;;;8.00;99.90;;;;;;5063690;28;20199;-51
2022/02/16 09:25:01;;;;;;;2.93;2.67;;;8.00;99.90;;;;;;5049589;28;20260;-43
2022/02/16 09:27:28;;;;;;;2.60;2.40;;;8.00;99.90;;;;;;5062034;28;20205;-46
2022/02/16 09:29:55;;;;;;;2.20;2.10;;;8.20;99.90;;;;;;5054088;28;20219;-47
2022/02/16 09:32:22;;;;;;;3.37;2.10;;;8.00;99.90;;;;;;5056933;28;20285;-43
2022/02/16 09:34:51;;;;;;;2.00;1.80;;;8.00;99.90;;;;;;5060413;28;20209;-44
2022/02/16 09:37:19;;;;;;;1.90;1.80;;;8.00;99.90;;;;;;5068696;28;20201;-41
2022/02/16 09:39:46;;;;;;;1.67;1.57;;;8.10;99.90;;;;;;5047190;28;20221;-45
2022/02/16 09:42:13;;;;;;;1.70;1.50;;;8.20;99.90;;;;;;5060956;28;20659;-43
2022/02/16 09:44:51;;;;;;;1.70;1.60;;;8.10;99.90;;;;;;5056527;28;20199;-45
2022/02/16 09:47:19;;;;;;;1.87;1.70;;;8.20;99.90;;;;;;5052814;28;20207;-44
2022/02/16 09:49:46;;;;;;;2.17;1.50;;;8.30;99.90;;;;;;5066606;28;20230;-48
2022/02/16 09:52:15;;;;;;;1.63;1.10;;;8.10;99.90;;;;;;5070367;28;20200;-41
2022/02/16 09:54:42;;;;;;;11.73;2.90;;;8.00;99.90;;;;;;5056187;28;20236;-41
2022/02/16 09:57:09;;;;;;;4.87;1.73;;;8.10;99.90;;;;;;5062934;28;20206;-44
2022/02/16 09:59:36;;;;;;;1.20;1.10;;;8.20;99.90;;;;;;5059262;28;20301;-43
2022/02/16 10:02:07;;;;;;;1.67;1.10;;;8.20;99.90;;;;;;5063724;28;20209;-42
2022/02/16 10:04:36;;;;;;;2.73;1.60;;;8.10;99.90;;;;;;5088533;27;20193;-40
2022/02/16 10:07:04;;;;;;;13.57;4.33;;;8.30;99.90;;;;;;5066466;28;20566;-42
2022/02/16 10:09:35;;;;;;;11.03;2.70;;;8.10;99.90;;;;;;5054918;28;20305;-41
2022/02/16 10:12:04;;;;;;;6.93;2.53;;;8.20;99.90;;;;;;5041177;28;20199;-40
2022/02/16 10:14:34;;;;;;;2.17;1.40;;;8.40;99.90;;;;;;5060379;28;20209;-42
2022/02/16 10:17:16;;;;;;;8.47;1.70;;;8.30;99.90;;;;;;5053811;28;20846;-40
2022/02/16 10:19:50;;;;;;;7.20;1.77;;;8.30;99.90;;;;;;5041795;28;20234;-41
2022/02/16 10:22:18;;;;;;;11.90;2.40;;;8.50;99.90;;;;;;5065446;28;20194;-40
2022/02/16 10:24:46;;;;;;;6.23;2.17;;;8.50;99.90;;;;;;5050943;28;20209;-43
2022/02/16 10:27:15;;;;;;;7.20;2.90;;;8.40;99.90;;;;;;5051047;28;20206;-41
2022/02/16 10:29:43;;;;;;;15.83;3.23;;;8.50;99.90;;;;;;5055266;28;20224;-40
2022/02/16 10:32:11;;;;;;;10.90;3.03;;;8.60;99.90;;;;;;5071122;28;20214;-41
2022/02/16 10:34:49;;;;;;;10.13;3.00;;;8.60;99.90;;;;;;5051063;28;20206;-41
2022/02/16 10:37:18;;;;;;;6.67;2.87;;;8.70;99.90;;;;;;5059641;28;20202;-41
2022/02/16 10:40:01;;;;;;;4.23;2.37;;;8.50;99.90;;;;;;5061172;28;20214;-41
2022/02/16 10:42:30;;;;;;;11.53;2.87;;;8.70;99.90;;;;;;5049549;28;20210;-42
2022/02/16 10:45:14;;;;;;;17.00;4.37;;;8.80;99.90;;;;;;5059224;28;20207;-41
2022/02/16 10:48:01;;;;;;;14.23;4.00;;;8.80;99.90;;;;;;5072326;28;20233;-41
2022/02/16 10:50:32;;;;;;;15.03;2.97;;;8.90;99.90;;;;;;5054414;28;20222;-41
2022/02/16 10:53:01;;;;;;;5.57;2.83;;;8.80;99.90;;;;;;5059026;28;20256;-41
2022/02/16 10:55:42;;;;;;;7.23;2.87;;;8.90;99.90;;;;;;5062280;28;20202;-41
2022/02/16 10:58:11;;;;;;;8.57;2.10;;;8.80;99.90;;;;;;5046553;28;20211;-44
2022/02/16 11:00:40;;;;;;;3.53;2.27;;;9.00;99.90;;;;;;5059961;28;20222;-42
2022/02/16 11:03:09;;;;;;;6.70;2.07;;;9.00;99.90;;;;;;5065269;28;20285;-43
2022/02/16 11:05:41;;;;;;;12.00;3.73;;;9.00;99.90;;;;;;5061157;28;20202;-41
2022/02/16 11:08:13;;;;;;;3.27;1.77;;;8.90;99.90;;;;;;5054957;28;20203;-41
2022/02/16 11:10:45;;;;;;;6.60;2.83;;;9.10;99.90;;;;;;5063403;28;20218;-41
2022/02/16 11:13:15;;;;;;;4.83;1.90;;;9.10;99.90;;;;;;5041715;28;20277;-43
2022/02/16 11:15:42;;;;;;;9.63;2.20;;;9.10;99.90;;;;;;5061066;28;20543;-40
2022/02/16 11:18:15;;;;;;;6.27;2.47;;;9.20;99.90;;;;;;5055736;28;20206;-44
2022/02/16 11:20:43;;;;;;;2.13;1.43;;;9.30;99.90;;;;;;5062216;28;20202;-42
2022/02/16 11:23:13;;;;;;;4.17;2.10;;;9.20;99.90;;;;;;5053950;28;20955;-41
2022/02/16 11:25:45;;;;;;;7.37;2.30;;;9.30;99.90;;;;;;5055870;28;20194;-41
2022/02/16 11:28:13;;;;;;;7.57;2.50;;;;;;;;;;5043761;28;20210;-41
2022/02/16 11:30:44;;;;;;;1.67;1.57;;;9.40;99.90;;;;;;5063378;28;20218;-40
2022/02/16 11:33:19;;;;;;;3.10;2.20;;;9.40;99.90;;;;;;5055298;28;20908;-41
2022/02/16 11:35:53;;;;;;;10.60;3.37;;;9.40;99.90;;;;;;5065043;28;20614;-41
2022/02/16 11:38:23;;;;;;;19.23;3.70;;;9.50;99.90;;;;;;5059231;28;20227;-41
2022/02/16 11:40:53;;;;;;;2.60;1.10;;;9.50;99.90;;;;;;5056289;28;20655;-48
2022/02/16 11:43:22;;;;;;;2.87;1.50;;;9.60;99.90;;;;;;5048097;28;20677;-42
2022/02/16 11:46:01;;;;;;;3.60;1.50;;;9.60;99.90;;;;;;5043088;28;20202;-47
2022/02/16 11:48:53;;;;;;;1.83;1.43;;;9.60;99.90;;;;;;5051007;28;20702;-46
2022/02/16 11:51:39;;;;;;;6.77;2.50;;;9.70;99.90;;;;;;5028900;28;20311;-42
2022/02/16 11:54:53;;;;;;;10.67;4.03;;;9.70;99.90;;;;;;5059254;28;20222;-43
2022/02/16 11:57:42;;;;;;;6.10;2.87;;;9.70;99.90;;;;;;5054859;28;20667;-42
2022/02/16 12:00:23;;;;;;;4.23;2.53;;;9.80;99.90;;;;;;5038130;28;20704;-42
2022/02/16 12:03:20;;;;;;;1.73;1.47;;;9.80;99.90;;;;;;5052054;28;20566;-43
2022/02/16 12:05:53;;;;;;;2.47;1.43;;;9.90;99.90;;;;;;5054896;28;20202;-43
2022/02/16 12:08:23;;;;;;;3.90;1.80;;;9.90;99.90;;;;;;5044749;28;20231;-43
2022/02/16 12:10:52;;;;;;;4.33;1.90;;;10.00;99.90;;;;;;5049020;28;20222;-46
2022/02/16 12:13:30;;;;;;;2.17;1.57;;;10.00;99.90;;;;;;5046824;28;20284;-41
2022/02/16 12:15:59;;;;;;;2.07;1.60;;;10.10;99.90;;;;;;5043314;28;20896;-42
2022/02/16 12:18:26;;;;;;;3.97;2.40;;;10.00;99.90;;;;;;5051319;28;20241;-42
2022/02/16 12:20:54;;;;;;;1.90;1.80;;;10.10;99.90;;;;;;5047387;28;21871;-45
2022/02/16 12:23:21;;;;;;;1.67;1.57;;;10.20;99.90;;;;;;5045137;28;20198;-44
2022/02/16 12:26:02;;;;;;;2.40;2.03;;;10.20;99.90;;;;;;5060577;28;20310;-44
2022/02/16 12:28:30;;;;;;;3.60;1.67;;;10.30;99.90;;;;;;5043573;28;20246;-40
2022/02/16 12:30:57;;;;;;;1.83;1.33;;;10.30;99.90;;;;;;5041513;28;20294;-42
2022/02/16 12:33:26;;;;;;;2.07;1.70;;;10.30;99.90;;;;;;5053755;28;20226;-41
2022/02/16 12:35:53;;;;;;;2.73;1.70;;;10.40;99.90;;;;;;5054928;28;20695;-42
2022/02/16 12:38:23;;;;;;;1.30;1.20;;;10.30;99.90;;;;;;5054159;28;20246;-43
2022/02/16 12:40:50;;;;;;;1.67;1.57;;;10.40;99.90;;;;;;5053301;28;20186;-44
2022/02/16 12:43:17;;;;;;;1.17;0.90;;;10.40;99.90;;;;;;5058593;28;20699;-43
2022/02/16 12:45:48;;;;;;;2.10;0.87;;;10.50;99.90;;;;;;5045486;28;20508;-45
2022/02/16 12:48:16;;;;;;;3.87;1.07;;;10.50;99.90;;;;;;5064544;28;20202;-41
2022/02/16 12:50:44;;;;;;;1.40;0.90;;;10.50;99.90;;;;;;5047931;28;20214;-43
2022/02/16 12:53:12;;;;;;;1.10;0.93;;;10.60;99.90;;;;;;5056837;28;20897;-41
2022/02/16 12:55:44;;;;;;;1.13;0.87;;;10.60;99.90;;;;;;5054455;28;20218;-45
2022/02/16 12:58:13;;;;;;;1.17;0.90;;;10.60;99.90;;;;;;5058007;28;20675;-41
2022/02/16 13:00:49;;;;;;;1.70;0.90;;;10.70;99.90;;;;;;5060149;28;20195;-43
2022/02/16 13:03:26;;;;;;;2.37;0.90;;;10.70;99.90;;;;;;5045971;28;20246;-42
2022/02/16 13:05:53;;;;;;;1.67;1.00;;;10.70;99.90;;;;;;5053140;28;20372;-46
2022/02/16 13:08:25;;;;;;;1.93;1.10;;;10.70;99.90;;;;;;5061930;28;20217;-41